Terminal Aerodrome Forecast
Issued by NWS Tuscon, AZ

Home | Current Version | Previous Version | Text Only | Print | Product List | Glossary On
Versions: 1 2 3 4 5 6 7 8 9 10 11 12 13 14 15 16
000
FTUS45 KTWC 281735
TAFDUG
TAF
KDUG 281735Z 2818/2918 31006KT P6SM FEW120 SCT300
     FM282200 27008KT P6SM VCTS SCT070CB SCT160 SCT300
     FM290100 30007KT P6SM VCSH SCT080 BKN300
     FM290400 03006KT P6SM SCT100 SCT300
     FM290800 VRB04KT P6SM SCT300=

USA.gov is the U.S. government's official web portal to all federal, state and local government web resources and services.